Time,TemperatureF,DewpointF,PressureIn,WindDirection,WindDirectionDegrees,WindSpeedMPH,WindSpeedGustMPH,Humidity,HourlyPrecipIn,Conditions,Clouds,dailyrainin,SoftwareType,DateUTC
2013-05-28 00:01:00,58.7,53.0,30.21,ESE,112,0.0,0.0,81,0.00,,---,0.00,VWS V14.01,2013-05-28 04:01:00,
2013-05-28 00:02:00,58.7,53.0,30.21,ESE,112,0.0,0.0,81,0.00,,---,0.00,VWS V14.01,2013-05-28 04:02:00,
2013-05-28 00:07:00,58.7,53.0,30.21,ESE,112,0.0,0.0,81,0.00,,---,0.00,VWS V14.01,2013-05-28 04:07:00,
2013-05-28 00:12:00,58.5,52.8,30.21,ESE,112,0.0,0.0,81,0.00,,---,0.00,VWS V14.01,2013-05-28 04:12:00,
2013-05-28 00:17:00,58.3,52.6,30.22,ESE,112,0.0,0.0,81,0.00,,---,0.00,VWS V14.01,2013-05-28 04:17:00,
2013-05-28 00:22:00,58.3,53.0,30.21,ESE,112,0.3,0.4,82,0.00,,---,0.00,VWS V14.01,2013-05-28 04:22:00,
2013-05-28 00:27:00,58.1,52.8,30.21,ESE,112,0.3,1.5,82,0.00,,---,0.00,VWS V14.01,2013-05-28 04:27:00,
2013-05-28 00:32:00,58.0,53.0,30.21,ESE,112,0.0,0.0,83,0.00,,---,0.00,VWS V14.01,2013-05-28 04:32:00,
2013-05-28 00:37:00,58.0,53.0,30.21,ESE,112,0.0,1.5,83,0.00,,---,0.00,VWS V14.01,2013-05-28 04:37:00,
2013-05-28 00:42:00,57.8,52.8,30.21,ESE,112,0.0,0.0,83,0.00,,---,0.00,VWS V14.01,2013-05-28 04:42:00,
2013-05-28 00:48:00,57.6,52.6,30.21,ESE,112,0.0,0.0,83,0.00,,---,0.00,VWS V14.01,2013-05-28 04:48:00,
2013-05-28 00:53:00,57.4,52.4,30.21,ESE,112,0.0,0.0,83,0.00,,---,0.00,VWS V14.01,2013-05-28 04:53:00,
2013-05-28 00:58:00,57.4,52.4,30.21,ESE,112,0.0,0.0,83,0.00,,---,0.00,VWS V14.01,2013-05-28 04:58:00,
2013-05-28 01:03:00,57.2,52.6,30.21,ESE,112,0.0,0.0,84,0.00,,---,0.00,VWS V14.01,2013-05-28 05:03:00,
2013-05-28 01:08:00,57.1,52.5,30.21,ESE,112,0.0,0.0,84,0.00,,---,0.00,VWS V14.01,2013-05-28 05:08:00,
2013-05-28 01:13:00,56.9,52.3,30.21,ESE,112,0.0,0.0,84,0.00,,---,0.00,VWS V14.01,2013-05-28 05:13:00,
2013-05-28 01:18:00,56.7,52.1,30.21,ESE,112,0.0,0.0,84,0.00,,---,0.00,VWS V14.01,2013-05-28 05:18:00,
2013-05-28 01:23:00,56.7,52.4,30.21,ESE,112,0.0,0.0,85,0.00,,---,0.00,VWS V14.01,2013-05-28 05:23:00,
2013-05-28 01:28:00,56.7,52.4,30.21,ESE,112,0.0,0.0,85,0.00,,---,0.00,VWS V14.01,2013-05-28 05:28:00,
2013-05-28 01:33:00,56.5,52.2,30.21,ESE,112,0.0,0.0,85,0.00,,---,0.00,VWS V14.01,2013-05-28 05:33:00,
2013-05-28 01:38:00,56.5,51.9,30.21,ESE,112,0.0,0.0,84,0.00,,---,0.00,VWS V14.01,2013-05-28 05:38:00,
2013-05-28 01:43:00,56.5,51.9,30.21,ESE,112,0.0,0.0,84,0.00,,---,0.00,VWS V14.01,2013-05-28 05:43:00,
2013-05-28 01:48:00,56.3,52.0,30.21,ESE,112,0.0,0.0,85,0.00,,---,0.00,VWS V14.01,2013-05-28 05:48:00,
2013-05-28 01:53:00,56.2,51.9,30.21,ESE,112,0.0,0.0,85,0.00,,---,0.00,VWS V14.01,2013-05-28 05:53:00,
2013-05-28 01:58:00,56.0,51.7,30.21,ESE,112,0.0,0.0,85,0.00,,---,0.00,VWS V14.01,2013-05-28 05:58:00,
2013-05-28 02:03:00,56.0,51.7,30.21,ESE,112,0.0,0.0,85,0.00,,---,0.00,VWS V14.01,2013-05-28 06:03:00,
2013-05-28 02:08:00,55.8,51.5,30.21,ESE,112,0.0,0.0,85,0.00,,---,0.00,VWS V14.01,2013-05-28 06:08:00,
2013-05-28 02:13:00,55.8,51.8,30.20,ESE,112,0.0,0.8,87,0.00,,---,0.00,VWS V14.01,2013-05-28 06:13:00,
2013-05-28 02:18:00,55.8,51.8,30.20,ESE,112,0.0,0.0,87,0.00,,---,0.00,VWS V14.01,2013-05-28 06:18:00,
2013-05-28 02:23:00,55.8,51.8,30.20,ESE,112,0.0,0.0,87,0.00,,---,0.00,VWS V14.01,2013-05-28 06:23:00,
2013-05-28 02:28:00,55.6,51.7,30.20,ESE,112,0.0,0.0,87,0.00,,---,0.00,VWS V14.01,2013-05-28 06:28:00,
2013-05-28 02:33:00,55.6,51.7,30.20,ESE,112,0.0,0.0,87,0.00,,---,0.00,VWS V14.01,2013-05-28 06:33:00,
2013-05-28 02:38:00,55.6,52.0,30.19,ESE,112,0.0,0.0,88,0.00,,---,0.00,VWS V14.01,2013-05-28 06:38:00,
2013-05-28 02:43:00,55.4,51.8,30.20,ESE,112,0.0,0.0,88,0.00,,---,0.00,VWS V14.01,2013-05-28 06:43:00,
2013-05-28 02:48:00,55.4,51.8,30.19,ESE,112,0.0,0.0,88,0.00,,---,0.00,VWS V14.01,2013-05-28 06:48:00,
2013-05-28 02:54:00,55.4,51.8,30.19,ESE,112,0.0,0.0,88,0.00,,---,0.00,VWS V14.01,2013-05-28 06:54:00,
2013-05-28 02:59:00,55.3,51.7,30.19,ESE,112,0.0,0.0,88,0.00,,---,0.00,VWS V14.01,2013-05-28 06:59:00,
2013-05-28 03:04:00,55.3,51.7,30.19,ESE,112,0.0,0.0,88,0.00,,---,0.00,VWS V14.01,2013-05-28 07:04:00,
2013-05-28 03:09:00,55.1,51.5,30.19,ESE,112,0.0,0.0,88,0.00,,---,0.00,VWS V14.01,2013-05-28 07:09:00,
2013-05-28 03:14:00,55.1,51.8,30.19,ESE,112,0.0,0.0,89,0.00,,---,0.00,VWS V14.01,2013-05-28 07:14:00,
2013-05-28 03:19:00,55.1,51.8,30.19,ESE,112,0.0,0.0,89,0.00,,---,0.00,VWS V14.01,2013-05-28 07:19:00,
2013-05-28 03:24:00,54.9,51.6,30.19,ESE,112,0.0,0.0,89,0.00,,---,0.00,VWS V14.01,2013-05-28 07:24:00,
2013-05-28 03:29:00,54.9,51.6,30.19,ESE,112,0.0,0.0,89,0.00,,---,0.00,VWS V14.01,2013-05-28 07:29:00,
2013-05-28 03:34:00,54.9,51.6,30.19,ESE,112,0.0,0.0,89,0.00,,---,0.00,VWS V14.01,2013-05-28 07:34:00,
2013-05-28 03:39:00,54.9,51.6,30.19,ESE,112,0.0,0.0,89,0.00,,---,0.00,VWS V14.01,2013-05-28 07:39:00,
2013-05-28 03:44:00,54.7,51.4,30.19,ESE,112,0.0,0.0,89,0.00,,---,0.00,VWS V14.01,2013-05-28 07:44:00,
2013-05-28 03:49:00,54.7,51.4,30.19,ESE,112,0.0,0.0,89,0.00,,---,0.00,VWS V14.01,2013-05-28 07:49:00,
2013-05-28 03:54:00,54.5,51.2,30.19,ESE,112,0.0,0.0,89,0.00,,---,0.00,VWS V14.01,2013-05-28 07:54:00,
2013-05-28 03:59:00,54.5,51.2,30.19,ESE,112,0.0,0.0,89,0.00,,---,0.00,VWS V14.01,2013-05-28 07:59:00,
2013-05-28 04:04:00,54.4,51.1,30.19,ESE,112,0.0,0.0,89,0.00,,---,0.00,VWS V14.01,2013-05-28 08:04:00,
2013-05-28 04:09:00,54.4,51.1,30.19,ESE,112,0.0,0.0,89,0.00,,---,0.00,VWS V14.01,2013-05-28 08:09:00,
2013-05-28 04:14:00,54.4,51.1,30.19,ESE,112,0.0,0.0,89,0.00,,---,0.00,VWS V14.01,2013-05-28 08:14:00,
2013-05-28 04:19:00,54.4,51.4,30.19,ESE,112,0.0,0.0,90,0.00,,---,0.00,VWS V14.01,2013-05-28 08:19:00,
2013-05-28 04:24:00,54.4,51.4,30.19,ESE,112,0.6,0.8,90,0.00,,---,0.00,VWS V14.01,2013-05-28 08:24:00,
2013-05-28 04:29:00,54.4,51.4,30.19,ESE,112,0.0,0.4,90,0.00,,---,0.00,VWS V14.01,2013-05-28 08:29:00,
2013-05-28 04:34:00,54.4,51.7,30.19,ESE,112,0.0,0.0,91,0.00,,---,0.00,VWS V14.01,2013-05-28 08:34:00,
2013-05-28 04:39:00,54.4,51.7,30.19,ESE,112,0.0,0.0,91,0.00,,---,0.00,VWS V14.01,2013-05-28 08:39:00,
2013-05-28 04:44:00,54.4,51.7,30.19,ESE,112,0.0,0.0,91,0.00,,---,0.00,VWS V14.01,2013-05-28 08:44:00,
2013-05-28 04:49:00,54.2,51.2,30.19,ESE,112,0.0,0.0,90,0.00,,---,0.00,VWS V14.01,2013-05-28 08:49:00,
2013-05-28 04:54:00,54.2,51.5,30.19,ESE,112,0.0,0.0,91,0.00,,---,0.00,VWS V14.01,2013-05-28 08:54:00,
2013-05-28 04:59:00,54.2,51.5,30.19,ESE,112,0.0,0.0,91,0.00,,---,0.00,VWS V14.01,2013-05-28 08:59:00,
2013-05-28 05:05:00,54.2,51.5,30.19,ESE,112,0.0,0.4,91,0.00,,---,0.00,VWS V14.01,2013-05-28 09:05:00,
2013-05-28 05:10:00,54.4,51.7,30.19,ESE,112,0.0,0.0,91,0.00,,---,0.00,VWS V14.01,2013-05-28 09:10:00,
2013-05-28 05:15:00,54.4,51.7,30.19,ESE,112,0.6,1.5,91,0.00,,---,0.00,VWS V14.01,2013-05-28 09:15:00,
2013-05-28 05:20:00,54.4,51.7,30.19,ESE,112,1.4,2.3,91,0.00,,---,0.00,VWS V14.01,2013-05-28 09:20:00,
2013-05-28 05:25:00,54.4,52.0,30.18,ESE,112,1.1,2.3,92,0.00,,---,0.00,VWS V14.01,2013-05-28 09:25:00,
2013-05-28 05:30:00,54.4,52.0,30.19,ESE,112,0.0,1.5,92,0.00,,---,0.00,VWS V14.01,2013-05-28 09:30:00,
2013-05-28 05:35:00,54.4,52.0,30.19,ESE,112,0.0,0.0,92,0.00,,---,0.00,VWS V14.01,2013-05-28 09:35:00,
2013-05-28 05:40:00,54.4,52.0,30.19,ESE,112,0.0,0.0,92,0.00,,---,0.00,VWS V14.01,2013-05-28 09:40:00,
2013-05-28 05:45:00,54.2,51.8,30.19,ESE,112,0.0,0.0,92,0.00,,---,0.00,VWS V14.01,2013-05-28 09:45:00,
2013-05-28 05:50:00,54.2,51.8,30.19,ESE,112,0.0,0.0,92,0.00,,---,0.00,VWS V14.01,2013-05-28 09:50:00,
2013-05-28 05:55:00,54.0,51.6,30.19,ESE,112,0.0,0.0,92,0.00,,---,0.00,VWS V14.01,2013-05-28 09:55:00,
2013-05-28 06:00:00,54.0,51.6,30.20,ESE,112,0.0,0.0,92,0.00,,---,0.00,VWS V14.01,2013-05-28 10:00:00,
2013-05-28 06:05:00,54.0,51.6,30.20,ESE,112,0.0,0.0,92,0.00,,---,0.00,VWS V14.01,2013-05-28 10:05:00,
2013-05-28 06:10:00,53.8,51.4,30.20,ESE,112,0.0,0.0,92,0.00,,---,0.00,VWS V14.01,2013-05-28 10:10:00,
2013-05-28 06:15:00,53.8,51.4,30.20,ESE,112,0.0,0.0,92,0.00,,---,0.00,VWS V14.01,2013-05-28 10:15:00,
2013-05-28 06:20:00,53.8,51.4,30.20,ESE,112,0.0,0.0,92,0.00,,---,0.00,VWS V14.01,2013-05-28 10:20:00,
2013-05-28 06:25:00,54.0,51.6,30.20,ESE,112,0.0,0.0,92,0.00,,---,0.00,VWS V14.01,2013-05-28 10:25:00,
2013-05-28 06:30:00,54.0,51.6,30.20,ESE,112,0.0,0.0,92,0.00,,---,0.00,VWS V14.01,2013-05-28 10:30:00,
2013-05-28 06:35:00,54.2,51.8,30.21,ESE,112,0.0,0.0,92,0.00,,---,0.00,VWS V14.01,2013-05-28 10:35:00,
2013-05-28 06:40:00,54.2,51.8,30.21,ESE,112,0.0,0.0,92,0.00,,---,0.00,VWS V14.01,2013-05-28 10:40:00,
2013-05-28 06:45:00,54.4,52.0,30.21,ESE,112,0.0,0.0,92,0.00,,---,0.00,VWS V14.01,2013-05-28 10:45:00,
2013-05-28 06:50:00,54.4,52.0,30.21,ESE,112,0.0,0.0,92,0.00,,---,0.00,VWS V14.01,2013-05-28 10:50:00,
2013-05-28 06:55:00,54.7,52.3,30.21,ESE,112,0.0,0.0,92,0.00,,---,0.00,VWS V14.01,2013-05-28 10:55:00,
2013-05-28 07:00:00,54.9,52.8,30.21,ESE,112,0.0,0.0,93,0.00,,---,0.00,VWS V14.01,2013-05-28 11:00:00,
2013-05-28 07:05:00,55.3,53.2,30.21,ESE,112,0.0,0.0,93,0.00,,---,0.00,VWS V14.01,2013-05-28 11:05:00,
2013-05-28 07:10:00,55.8,53.7,30.21,ESE,112,0.0,0.0,93,0.00,,---,0.00,VWS V14.01,2013-05-28 11:10:00,
2013-05-28 07:15:00,56.5,54.7,30.21,ESE,112,0.0,0.0,94,0.00,,---,0.00,VWS V14.01,2013-05-28 11:15:00,
2013-05-28 07:20:00,57.1,55.3,30.21,ESE,112,0.0,0.0,94,0.00,,---,0.00,VWS V14.01,2013-05-28 11:20:00,
2013-05-28 07:25:00,57.8,56.0,30.21,ESE,112,0.0,0.0,94,0.00,,---,0.00,VWS V14.01,2013-05-28 11:25:00,
2013-05-28 07:30:00,58.3,56.2,30.21,ESE,112,0.6,0.8,93,0.00,,---,0.00,VWS V14.01,2013-05-28 11:30:00,
2013-05-28 07:36:00,58.9,56.8,30.21,ESE,112,0.6,2.3,93,0.00,,---,0.00,VWS V14.01,2013-05-28 11:36:00,
2013-05-28 07:41:00,59.4,57.3,30.21,ESE,112,0.3,0.4,93,0.00,,---,0.00,VWS V14.01,2013-05-28 11:41:00,
2013-05-28 07:46:00,60.1,58.0,30.22,ESE,112,0.6,0.8,93,0.00,,---,0.00,VWS V14.01,2013-05-28 11:46:00,
2013-05-28 07:51:00,60.8,58.4,30.22,ESE,112,0.6,0.8,92,0.00,,---,0.00,VWS V14.01,2013-05-28 11:51:00,
2013-05-28 07:56:00,62.1,59.7,30.22,ESE,112,0.6,1.5,92,0.00,,---,0.00,VWS V14.01,2013-05-28 11:56:00,
2013-05-28 08:01:00,63.0,60.2,30.22,ESE,112,1.4,1.9,91,0.00,,---,0.00,VWS V14.01,2013-05-28 12:01:00,
2013-05-28 08:06:00,64.3,61.5,30.22,ESE,112,1.8,2.3,91,0.00,,---,0.00,VWS V14.01,2013-05-28 12:06:00,
2013-05-28 08:11:00,65.5,62.7,30.22,ESE,112,1.8,2.7,91,0.00,,---,0.00,VWS V14.01,2013-05-28 12:11:00,
2013-05-28 08:16:00,66.6,63.8,30.23,ESE,112,2.1,2.7,91,0.00,,---,0.00,VWS V14.01,2013-05-28 12:16:00,
2013-05-28 08:21:00,67.5,64.3,30.23,ESE,112,2.9,3.8,90,0.00,,---,0.00,VWS V14.01,2013-05-28 12:21:00,
2013-05-28 08:26:00,68.6,64.8,30.22,ESE,112,2.6,4.6,88,0.00,,---,0.00,VWS V14.01,2013-05-28 12:26:00,
2013-05-28 08:31:00,69.5,65.3,30.23,SE,135,2.9,4.6,87,0.00,,---,0.00,VWS V14.01,2013-05-28 12:31:00,
2013-05-28 08:36:00,70.2,65.7,30.22,East,90,5.4,7.1,85,0.00,,---,0.00,VWS V14.01,2013-05-28 12:36:00,
2013-05-28 08:41:00,70.9,66.0,30.22,ESE,112,2.6,7.1,84,0.00,,---,0.00,VWS V14.01,2013-05-28 12:41:00,
2013-05-28 08:46:00,71.6,66.3,30.22,SSE,158,2.9,5.2,83,0.00,,---,0.00,VWS V14.01,2013-05-28 12:46:00,
2013-05-28 08:51:00,72.2,66.6,30.23,East,90,5.4,7.1,82,0.00,,---,0.00,VWS V14.01,2013-05-28 12:51:00,
2013-05-28 08:56:00,72.7,67.0,30.23,SE,135,4.0,5.2,82,0.00,,---,0.00,VWS V14.01,2013-05-28 12:56:00,
2013-05-28 09:01:00,73.3,66.9,30.23,ENE,68,1.1,6.5,80,0.00,,---,0.00,VWS V14.01,2013-05-28 13:01:00,
2013-05-28 09:06:00,73.8,67.4,30.23,SE,135,4.3,5.7,80,0.00,,---,0.00,VWS V14.01,2013-05-28 13:06:00,
2013-05-28 09:11:00,74.3,67.1,30.23,SSE,158,5.8,7.6,78,0.00,,---,0.00,VWS V14.01,2013-05-28 13:11:00,
2013-05-28 09:16:00,74.7,67.5,30.24,SE,135,1.1,1.9,78,0.00,,---,0.00,VWS V14.01,2013-05-28 13:16:00,
2013-05-28 09:22:00,75.4,67.8,30.24,ESE,112,1.4,4.6,77,0.00,,---,0.00,VWS V14.01,2013-05-28 13:22:00,
2013-05-28 09:27:00,76.0,67.6,30.24,West,270,0.3,1.5,75,0.00,,---,0.00,VWS V14.01,2013-05-28 13:27:00,
2013-05-28 09:32:00,76.3,67.5,30.24,WNW,292,1.4,1.9,74,0.00,,---,0.00,VWS V14.01,2013-05-28 13:32:00,
2013-05-28 09:37:00,76.9,68.1,30.24,NNW,338,1.4,2.3,74,0.00,,---,0.00,VWS V14.01,2013-05-28 13:37:00,
2013-05-28 09:42:00,77.4,68.1,30.24,SW,225,2.6,3.8,73,0.00,,---,0.00,VWS V14.01,2013-05-28 13:42:00,
2013-05-28 09:47:00,77.8,68.1,30.24,WNW,292,1.8,2.3,72,0.00,,---,0.00,VWS V14.01,2013-05-28 13:47:00,
2013-05-28 09:52:00,77.6,66.6,30.24,West,270,1.4,3.8,69,0.00,,---,0.00,VWS V14.01,2013-05-28 13:52:00,
2013-05-28 09:57:00,77.6,67.5,30.24,NNE,22,0.6,3.4,71,0.00,,---,0.00,VWS V14.01,2013-05-28 13:57:00,
2013-05-28 10:02:00,77.6,67.1,30.24,NNW,338,0.3,0.8,70,0.00,,---,0.00,VWS V14.01,2013-05-28 14:02:00,
2013-05-28 10:07:00,77.8,66.4,30.24,SSW,202,1.8,2.3,68,0.00,,---,0.00,VWS V14.01,2013-05-28 14:07:00,
2013-05-28 10:12:00,77.6,66.2,30.24,West,270,3.2,4.2,68,0.00,,---,0.00,VWS V14.01,2013-05-28 14:12:00,
2013-05-28 10:17:00,77.4,66.9,30.24,ESE,112,2.1,2.7,70,0.00,,---,0.00,VWS V14.01,2013-05-28 14:17:00,
2013-05-28 10:22:00,77.6,66.6,30.24,ENE,68,0.6,0.8,69,0.00,,---,0.00,VWS V14.01,2013-05-28 14:22:00,
2013-05-28 10:27:00,77.6,66.2,30.24,NNW,338,0.0,0.0,68,0.00,,---,0.00,VWS V14.01,2013-05-28 14:27:00,
2013-05-28 10:32:00,77.8,66.4,30.24,ESE,112,0.6,0.8,68,0.00,,---,0.00,VWS V14.01,2013-05-28 14:32:00,
2013-05-28 10:37:00,78.3,66.9,30.25,SE,135,1.1,3.8,68,0.00,,---,0.00,VWS V14.01,2013-05-28 14:37:00,
2013-05-28 10:42:00,77.9,66.1,30.24,East,90,0.3,2.3,67,0.00,,---,0.00,VWS V14.01,2013-05-28 14:42:00,
2013-05-28 10:47:00,77.8,66.4,30.24,SSW,202,1.4,1.9,68,0.00,,---,0.00,VWS V14.01,2013-05-28 14:47:00,
2013-05-28 10:52:00,78.3,66.9,30.24,West,270,1.4,1.9,68,0.00,,---,0.00,VWS V14.01,2013-05-28 14:52:00,
2013-05-28 10:57:00,79.2,64.0,30.24,WSW,248,4.0,5.2,60,0.00,,---,0.00,VWS V14.01,2013-05-28 14:57:00,
2013-05-28 11:02:00,79.4,65.6,30.24,SSE,158,0.6,0.8,63,0.00,,---,0.00,VWS V14.01,2013-05-28 15:02:00,
2013-05-28 11:07:00,79.7,66.8,30.24,WNW,292,1.8,2.7,65,0.00,,---,0.00,VWS V14.01,2013-05-28 15:07:00,
2013-05-28 11:12:00,79.9,66.1,30.24,SW,225,4.0,5.2,63,0.00,,---,0.00,VWS V14.01,2013-05-28 15:12:00,
2013-05-28 11:17:00,79.9,67.0,30.25,North,0,2.6,3.4,65,0.00,,---,0.00,VWS V14.01,2013-05-28 15:17:00,
2013-05-28 11:22:00,80.3,66.5,30.24,NNW,338,1.1,3.4,63,0.00,,---,0.00,VWS V14.01,2013-05-28 15:22:00,
2013-05-28 11:27:00,80.3,67.0,30.24,SW,225,0.6,0.8,64,0.00,,---,0.00,VWS V14.01,2013-05-28 15:27:00,
2013-05-28 11:32:00,80.1,66.3,30.25,WNW,292,1.4,2.7,63,0.00,,---,0.00,VWS V14.01,2013-05-28 15:32:00,
2013-05-28 11:38:00,79.9,66.1,30.24,North,0,0.0,0.8,63,0.00,,---,0.00,VWS V14.01,2013-05-28 15:38:00,
2013-05-28 11:43:00,80.3,66.5,30.25,NNW,338,1.4,2.3,63,0.00,,---,0.00,VWS V14.01,2013-05-28 15:43:00,
2013-05-28 11:48:00,80.3,66.0,30.24,South,180,2.1,2.7,62,0.00,,---,0.00,VWS V14.01,2013-05-28 15:48:00,
2013-05-28 11:53:00,80.5,66.7,30.24,NNW,338,0.3,4.2,63,0.00,,---,0.00,VWS V14.01,2013-05-28 15:53:00,
2013-05-28 11:58:00,80.1,66.3,30.25,SSW,202,1.1,1.5,63,0.00,,---,0.00,VWS V14.01,2013-05-28 15:58:00,
2013-05-28 12:03:00,80.3,67.0,30.25,North,0,0.6,2.7,64,0.00,,---,0.00,VWS V14.01,2013-05-28 16:03:00,
2013-05-28 12:08:00,80.6,66.3,30.25,SE,135,2.6,4.2,62,0.00,,---,0.00,VWS V14.01,2013-05-28 16:08:00,
2013-05-28 12:13:00,81.4,66.6,30.24,SW,225,0.6,4.6,61,0.00,,---,0.00,VWS V14.01,2013-05-28 16:13:00,
2013-05-28 12:18:00,81.7,65.8,30.24,SSE,158,1.8,2.3,59,0.00,,---,0.00,VWS V14.01,2013-05-28 16:18:00,
2013-05-28 12:23:00,82.3,66.4,30.24,ENE,68,3.5,6.5,59,0.00,,---,0.00,VWS V14.01,2013-05-28 16:23:00,
2013-05-28 12:28:00,82.1,65.7,30.24,SE,135,1.4,2.7,58,0.00,,---,0.00,VWS V14.01,2013-05-28 16:28:00,
2013-05-28 12:33:00,81.9,65.5,30.24,SE,135,2.1,2.7,58,0.00,,---,0.00,VWS V14.01,2013-05-28 16:33:00,
2013-05-28 12:38:00,81.5,65.7,30.24,South,180,1.4,7.6,59,0.00,,---,0.00,VWS V14.01,2013-05-28 16:38:00,
2013-05-28 12:43:00,82.1,66.7,30.24,ESE,112,6.4,9.4,60,0.00,,---,0.00,VWS V14.01,2013-05-28 16:43:00,
2013-05-28 12:48:00,82.8,66.9,30.24,ESE,112,6.4,8.4,59,0.00,,---,0.00,VWS V14.01,2013-05-28 16:48:00,
2013-05-28 12:53:00,82.6,66.7,30.24,SE,135,4.0,5.7,59,0.00,,---,0.00,VWS V14.01,2013-05-28 16:53:00,
2013-05-28 12:58:00,82.1,65.7,30.24,East,90,5.8,10.3,58,0.00,,---,0.00,VWS V14.01,2013-05-28 16:58:00,
2013-05-28 13:03:00,81.7,66.3,30.24,ESE,112,1.4,7.1,60,0.00,,---,0.00,VWS V14.01,2013-05-28 17:03:00,
2013-05-28 13:08:00,81.7,65.8,30.24,ESE,112,4.0,7.1,59,0.00,,---,0.00,VWS V14.01,2013-05-28 17:08:00,
2013-05-28 13:13:00,81.7,66.3,30.24,SE,135,2.9,3.8,60,0.00,,---,0.00,VWS V14.01,2013-05-28 17:13:00,
2013-05-28 13:19:00,81.9,66.0,30.24,NE,45,2.6,4.6,59,0.00,,---,0.00,VWS V14.01,2013-05-28 17:19:00,
2013-05-28 13:24:00,81.5,65.7,30.24,WSW,248,1.8,3.8,59,0.00,,---,0.00,VWS V14.01,2013-05-28 17:24:00,
2013-05-28 13:29:00,81.4,66.1,30.24,SSW,202,1.4,2.3,60,0.00,,---,0.00,VWS V14.01,2013-05-28 17:29:00,
2013-05-28 13:34:00,81.2,66.4,30.24,East,90,0.6,2.7,61,0.00,,---,0.00,VWS V14.01,2013-05-28 17:34:00,
2013-05-28 13:39:00,81.7,67.3,30.24,WNW,292,1.1,6.1,62,0.00,,---,0.00,VWS V14.01,2013-05-28 17:39:00,
2013-05-28 13:44:00,82.4,68.0,30.23,North,0,2.1,3.4,62,0.00,,---,0.00,VWS V14.01,2013-05-28 17:44:00,
2013-05-28 13:49:00,82.8,66.9,30.23,WNW,292,0.6,1.5,59,0.00,,---,0.00,VWS V14.01,2013-05-28 17:49:00,
2013-05-28 13:54:00,83.9,66.3,30.23,ESE,112,1.8,11.8,56,0.00,,---,0.00,VWS V14.01,2013-05-28 17:54:00,
2013-05-28 13:59:00,84.1,68.1,30.22,ESE,112,4.0,7.1,59,0.00,,---,0.00,VWS V14.01,2013-05-28 17:59:00,
2013-05-28 14:04:00,83.9,66.9,30.22,SSW,202,0.6,4.2,57,0.00,,---,0.00,VWS V14.01,2013-05-28 18:04:00,
2013-05-28 14:09:00,83.3,66.8,30.22,SW,225,1.1,2.3,58,0.00,,---,0.00,VWS V14.01,2013-05-28 18:09:00,
2013-05-28 14:14:00,83.9,66.3,30.21,SW,225,1.8,5.2,56,0.00,,---,0.00,VWS V14.01,2013-05-28 18:14:00,
2013-05-28 14:19:00,84.2,68.2,30.21,East,90,4.0,5.2,59,0.00,,---,0.00,VWS V14.01,2013-05-28 18:19:00,
2013-05-28 14:24:00,84.4,68.4,30.21,South,180,2.6,7.1,59,0.00,,---,0.00,VWS V14.01,2013-05-28 18:24:00,
2013-05-28 14:29:00,84.8,68.2,30.21,NW,315,2.9,6.5,58,0.00,,---,0.00,VWS V14.01,2013-05-28 18:29:00,
2013-05-28 14:34:00,84.2,67.7,30.21,SSW,202,4.6,6.1,58,0.00,,---,0.00,VWS V14.01,2013-05-28 18:34:00,
2013-05-28 14:39:00,83.7,66.7,30.21,NNW,338,2.1,4.6,57,0.00,,---,0.00,VWS V14.01,2013-05-28 18:39:00,
2013-05-28 14:44:00,83.5,66.5,30.21,SE,135,6.1,8.0,57,0.00,,---,0.00,VWS V14.01,2013-05-28 18:44:00,
2013-05-28 14:49:00,83.5,67.5,30.21,WNW,292,1.8,6.5,59,0.00,,---,0.00,VWS V14.01,2013-05-28 18:49:00,
2013-05-28 14:54:00,83.7,68.2,30.21,WNW,292,2.1,5.2,60,0.00,,---,0.00,VWS V14.01,2013-05-28 18:54:00,
2013-05-28 14:59:00,83.9,66.9,30.21,SSE,158,5.4,12.2,57,0.00,,---,0.00,VWS V14.01,2013-05-28 18:59:00,
2013-05-28 15:04:00,83.0,66.0,30.21,ESE,112,3.5,4.6,57,0.00,,---,0.00,VWS V14.01,2013-05-28 19:04:00,
2013-05-28 15:09:00,82.1,65.7,30.20,SE,135,2.9,11.3,58,0.00,,---,0.00,VWS V14.01,2013-05-28 19:09:00,
2013-05-28 15:14:00,82.1,65.2,30.20,SSE,158,6.4,8.4,57,0.00,,---,0.00,VWS V14.01,2013-05-28 19:14:00,
2013-05-28 15:19:00,82.1,66.2,30.20,ESE,112,2.9,11.8,59,0.00,,---,0.00,VWS V14.01,2013-05-28 19:19:00,
2013-05-28 15:24:00,81.7,65.8,30.20,SE,135,8.6,11.3,59,0.00,,---,0.00,VWS V14.01,2013-05-28 19:24:00,
2013-05-28 15:29:00,81.4,66.1,30.20,ESE,112,3.2,6.1,60,0.00,,---,0.00,VWS V14.01,2013-05-28 19:29:00,
2013-05-28 15:34:00,81.7,66.3,30.19,ESE,112,4.6,11.8,60,0.00,,---,0.00,VWS V14.01,2013-05-28 19:34:00,
2013-05-28 15:39:00,82.3,65.9,30.19,East,90,3.5,11.3,58,0.00,,---,0.00,VWS V14.01,2013-05-28 19:39:00,
2013-05-28 15:44:00,82.8,66.9,30.19,North,0,2.6,4.6,59,0.00,,---,0.00,VWS V14.01,2013-05-28 19:44:00,
2013-05-28 15:50:00,83.2,66.7,30.19,SSW,202,3.2,5.7,58,0.00,,---,0.00,VWS V14.01,2013-05-28 19:50:00,
2013-05-28 15:55:00,83.3,66.8,30.19,South,180,1.8,18.7,58,0.00,,---,0.00,VWS V14.01,2013-05-28 19:55:00,
2013-05-28 16:00:00,83.2,66.7,30.19,SE,135,5.4,10.3,58,0.00,,---,0.00,VWS V14.01,2013-05-28 20:00:00,
2013-05-28 16:05:00,82.4,66.0,30.18,SE,135,1.8,13.2,58,0.00,,---,0.00,VWS V14.01,2013-05-28 20:05:00,
2013-05-28 16:10:00,82.1,66.2,30.18,SE,135,8.6,13.2,59,0.00,,---,0.00,VWS V14.01,2013-05-28 20:10:00,
2013-05-28 16:15:00,82.6,66.2,30.18,SSW,202,5.8,8.4,58,0.00,,---,0.00,VWS V14.01,2013-05-28 20:15:00,
2013-05-28 16:20:00,82.8,66.4,30.18,East,90,4.0,10.7,58,0.00,,---,0.00,VWS V14.01,2013-05-28 20:20:00,
2013-05-28 16:25:00,82.6,66.7,30.18,SSW,202,1.8,9.9,59,0.00,,---,0.00,VWS V14.01,2013-05-28 20:25:00,
2013-05-28 16:30:00,82.8,66.9,30.18,SSE,158,2.9,7.6,59,0.00,,---,0.00,VWS V14.01,2013-05-28 20:30:00,
2013-05-28 16:35:00,82.8,66.4,30.17,SW,225,4.3,9.4,58,0.00,,---,0.00,VWS V14.01,2013-05-28 20:35:00,
2013-05-28 16:40:00,82.8,66.9,30.17,WSW,248,2.1,9.9,59,0.00,,---,0.00,VWS V14.01,2013-05-28 20:40:00,
2013-05-28 16:45:00,83.0,66.6,30.17,SE,135,5.4,11.3,58,0.00,,---,0.00,VWS V14.01,2013-05-28 20:45:00,
2013-05-28 16:50:00,83.0,66.0,30.17,South,180,4.6,10.7,57,0.00,,---,0.00,VWS V14.01,2013-05-28 20:50:00,
2013-05-28 16:55:00,82.4,65.5,30.17,SSW,202,4.0,11.3,57,0.00,,---,0.00,VWS V14.01,2013-05-28 20:55:00,
2013-05-28 17:00:00,82.4,66.0,30.17,East,90,1.1,9.9,58,0.00,,---,0.00,VWS V14.01,2013-05-28 21:00:00,
2013-05-28 17:05:00,82.1,65.7,30.17,SSE,158,8.6,11.3,58,0.00,,---,0.00,VWS V14.01,2013-05-28 21:05:00,
2013-05-28 17:10:00,81.7,65.8,30.17,ESE,112,12.2,17.0,59,0.00,,---,0.00,VWS V14.01,2013-05-28 21:10:00,
2013-05-28 17:15:00,81.4,66.1,30.17,WNW,292,2.9,12.6,60,0.00,,---,0.00,VWS V14.01,2013-05-28 21:15:00,
2013-05-28 17:20:00,81.2,65.4,30.17,WSW,248,2.6,8.4,59,0.00,,---,0.00,VWS V14.01,2013-05-28 21:20:00,
2013-05-28 17:25:00,80.8,65.5,30.18,SE,135,2.6,9.0,60,0.00,,---,0.00,VWS V14.01,2013-05-28 21:25:00,
2013-05-28 17:30:00,80.8,66.0,30.18,SSE,158,3.2,9.9,61,0.00,,---,0.00,VWS V14.01,2013-05-28 21:30:00,
2013-05-28 17:35:00,80.8,65.5,30.18,SE,135,6.9,9.0,60,0.00,,---,0.00,VWS V14.01,2013-05-28 21:35:00,
2013-05-28 17:40:00,80.6,65.8,30.18,SSW,202,1.8,9.0,61,0.00,,---,0.00,VWS V14.01,2013-05-28 21:40:00,
2013-05-28 17:45:00,80.5,65.2,30.18,SE,135,3.5,7.1,60,0.00,,---,0.00,VWS V14.01,2013-05-28 21:45:00,
2013-05-28 17:50:00,80.5,65.2,30.18,SE,135,5.4,7.1,60,0.00,,---,0.00,VWS V14.01,2013-05-28 21:50:00,
2013-05-28 17:55:00,80.5,65.7,30.18,SE,135,1.4,1.9,61,0.00,,---,0.00,VWS V14.01,2013-05-28 21:55:00,
2013-05-28 18:00:00,80.3,65.0,30.18,South,180,2.9,7.1,60,0.00,,---,0.00,VWS V14.01,2013-05-28 22:00:00,
2013-05-28 18:05:00,79.9,65.2,30.18,ESE,112,7.5,10.3,61,0.00,,---,0.00,VWS V14.01,2013-05-28 22:05:00,
2013-05-28 18:10:00,79.9,65.2,30.18,SSW,202,3.5,12.2,61,0.00,,---,0.00,VWS V14.01,2013-05-28 22:10:00,
2013-05-28 18:15:00,79.9,65.2,30.17,SE,135,1.8,2.3,61,0.00,,---,0.00,VWS V14.01,2013-05-28 22:15:00,
2013-05-28 18:20:00,79.7,65.0,30.17,SE,135,4.0,7.1,61,0.00,,---,0.00,VWS V14.01,2013-05-28 22:20:00,
2013-05-28 18:25:00,79.6,64.9,30.17,West,270,5.4,8.0,61,0.00,,---,0.00,VWS V14.01,2013-05-28 22:25:00,
2013-05-28 18:30:00,79.2,65.0,30.17,ESE,112,6.1,8.0,62,0.00,,---,0.00,VWS V14.01,2013-05-28 22:30:00,
2013-05-28 18:35:00,78.8,64.6,30.17,WNW,292,1.8,2.3,62,0.00,,---,0.00,VWS V14.01,2013-05-28 22:35:00,
2013-05-28 18:40:00,78.7,65.0,30.17,ESE,112,6.9,9.0,63,0.00,,---,0.00,VWS V14.01,2013-05-28 22:40:00,
2013-05-28 18:45:00,78.5,64.8,30.17,SE,135,2.9,3.8,63,0.00,,---,0.00,VWS V14.01,2013-05-28 22:45:00,
2013-05-28 18:51:00,78.3,65.5,30.17,SE,135,3.2,4.2,65,0.00,,---,0.00,VWS V14.01,2013-05-28 22:51:00,
2013-05-28 18:56:00,78.1,65.3,30.17,East,90,5.0,11.8,65,0.00,,---,0.00,VWS V14.01,2013-05-28 22:56:00,
2013-05-28 19:01:00,77.9,65.2,30.17,East,90,1.4,2.3,65,0.00,,---,0.00,VWS V14.01,2013-05-28 23:01:00,
2013-05-28 19:06:00,77.8,65.1,30.18,ESE,112,2.9,3.8,65,0.00,,---,0.00,VWS V14.01,2013-05-28 23:06:00,
2013-05-28 19:11:00,77.8,65.5,30.18,ESE,112,1.8,5.2,66,0.00,,---,0.00,VWS V14.01,2013-05-28 23:11:00,
2013-05-28 19:16:00,77.6,65.3,30.18,SSW,202,1.8,3.8,66,0.00,,---,0.00,VWS V14.01,2013-05-28 23:16:00,
2013-05-28 19:21:00,77.2,65.4,30.18,South,180,2.9,8.0,67,0.00,,---,0.00,VWS V14.01,2013-05-28 23:21:00,
2013-05-28 19:26:00,77.0,64.8,30.17,SE,135,1.1,1.5,66,0.00,,---,0.00,VWS V14.01,2013-05-28 23:26:00,
2013-05-28 19:31:00,76.9,65.1,30.17,East,90,2.9,3.8,67,0.00,,---,0.00,VWS V14.01,2013-05-28 23:31:00,
2013-05-28 19:36:00,76.7,64.9,30.18,NW,315,1.1,4.2,67,0.00,,---,0.00,VWS V14.01,2013-05-28 23:36:00,
2013-05-28 19:41:00,76.5,65.2,30.18,West,270,4.6,6.1,68,0.00,,---,0.00,VWS V14.01,2013-05-28 23:41:00,
2013-05-28 19:46:00,76.3,65.0,30.18,West,270,0.0,0.8,68,0.00,,---,0.00,VWS V14.01,2013-05-28 23:46:00,
2013-05-28 19:51:00,76.0,64.7,30.18,NE,45,0.6,0.8,68,0.00,,---,0.00,VWS V14.01,2013-05-28 23:51:00,
2013-05-28 19:56:00,75.6,64.3,30.19,SW,225,0.6,0.8,68,0.00,,---,0.00,VWS V14.01,2013-05-28 23:56:00,
2013-05-28 20:01:00,75.4,65.0,30.19,SW,225,1.4,3.8,70,0.00,,---,0.00,VWS V14.01,2013-05-29 00:01:00,
2013-05-28 20:06:00,75.1,64.2,30.19,SSE,158,0.6,0.8,69,0.00,,---,0.00,VWS V14.01,2013-05-29 00:06:00,
2013-05-28 20:11:00,74.7,63.9,30.19,SSE,158,0.0,0.0,69,0.00,,---,0.00,VWS V14.01,2013-05-29 00:11:00,
2013-05-28 20:16:00,74.5,64.1,30.19,ESE,112,0.3,0.8,70,0.00,,---,0.00,VWS V14.01,2013-05-29 00:16:00,
2013-05-28 20:21:00,74.2,63.8,30.19,ESE,112,0.0,0.4,70,0.00,,---,0.00,VWS V14.01,2013-05-29 00:21:00,
2013-05-28 20:26:00,73.8,63.8,30.19,ESE,112,0.0,0.0,71,0.00,,---,0.00,VWS V14.01,2013-05-29 00:26:00,
2013-05-28 20:31:00,73.3,63.8,30.19,ESE,112,0.3,0.4,72,0.00,,---,0.00,VWS V14.01,2013-05-29 00:31:00,
2013-05-28 20:36:00,72.7,63.6,30.19,ESE,112,0.0,0.0,73,0.00,,---,0.00,VWS V14.01,2013-05-29 00:36:00,
2013-05-28 20:41:00,72.4,63.3,30.19,ESE,112,0.0,0.0,73,0.00,,---,0.00,VWS V14.01,2013-05-29 00:41:00,
2013-05-28 20:46:00,72.0,62.9,30.19,ESE,112,0.3,0.4,73,0.00,,---,0.00,VWS V14.01,2013-05-29 00:46:00,
2013-05-28 20:52:00,71.5,62.8,30.19,SSE,158,0.0,0.8,74,0.00,,---,0.00,VWS V14.01,2013-05-29 00:52:00,
2013-05-28 20:57:00,71.1,62.5,30.19,SSE,158,0.0,0.0,74,0.00,,---,0.00,VWS V14.01,2013-05-29 00:57:00,
2013-05-28 21:02:00,70.9,62.7,30.19,SSE,158,0.0,0.0,75,0.00,,---,0.00,VWS V14.01,2013-05-29 01:02:00,
2013-05-28 21:07:00,70.6,62.8,30.20,SSE,158,0.0,0.0,76,0.00,,---,0.00,VWS V14.01,2013-05-29 01:07:00,
2013-05-28 21:12:00,70.2,62.4,30.20,SSW,202,0.0,0.0,76,0.00,,---,0.00,VWS V14.01,2013-05-29 01:12:00,
2013-05-28 21:17:00,69.8,62.0,30.20,South,180,0.0,1.5,76,0.00,,---,0.00,VWS V14.01,2013-05-29 01:17:00,
2013-05-28 21:22:00,69.5,62.1,30.20,South,180,0.0,0.0,77,0.00,,---,0.00,VWS V14.01,2013-05-29 01:22:00,
2013-05-28 21:27:00,69.3,61.9,30.20,South,180,0.0,0.0,77,0.00,,---,0.00,VWS V14.01,2013-05-29 01:27:00,
2013-05-28 21:32:00,68.9,61.9,30.20,South,180,0.0,0.0,78,0.00,,---,0.00,VWS V14.01,2013-05-29 01:32:00,
2013-05-28 21:37:00,68.6,61.6,30.20,South,180,0.0,0.0,78,0.00,,---,0.00,VWS V14.01,2013-05-29 01:37:00,
2013-05-28 21:42:00,68.2,61.6,30.20,South,180,0.6,0.8,79,0.00,,---,0.00,VWS V14.01,2013-05-29 01:42:00,
2013-05-28 21:47:00,68.0,61.4,30.20,SSE,158,0.6,0.8,79,0.00,,---,0.00,VWS V14.01,2013-05-29 01:47:00,
2013-05-28 21:52:00,67.7,61.4,30.19,SSE,158,0.3,0.8,80,0.00,,---,0.00,VWS V14.01,2013-05-29 01:52:00,
2013-05-28 21:57:00,67.7,61.8,30.19,ESE,112,0.0,2.3,81,0.00,,---,0.00,VWS V14.01,2013-05-29 01:57:00,
2013-05-28 22:02:00,67.7,62.2,30.19,SE,135,0.0,0.8,82,0.00,,---,0.00,VWS V14.01,2013-05-29 02:02:00,
2013-05-28 22:07:00,67.5,62.0,30.20,East,90,0.3,2.3,82,0.00,,---,0.00,VWS V14.01,2013-05-29 02:07:00,
2013-05-28 22:12:00,67.5,62.3,30.20,East,90,0.0,0.8,83,0.00,,---,0.00,VWS V14.01,2013-05-29 02:12:00,
2013-05-28 22:17:00,67.5,62.0,30.19,SE,135,0.3,1.5,82,0.00,,---,0.00,VWS V14.01,2013-05-29 02:17:00,
2013-05-28 22:22:00,67.5,62.3,30.19,SSW,202,0.3,0.4,83,0.00,,---,0.00,VWS V14.01,2013-05-29 02:22:00,
2013-05-28 22:27:00,67.3,62.5,30.20,NNW,338,0.3,0.8,84,0.00,,---,0.00,VWS V14.01,2013-05-29 02:27:00,
2013-05-28 22:32:00,67.3,62.5,30.19,NNW,338,0.0,0.0,84,0.00,,---,0.00,VWS V14.01,2013-05-29 02:32:00,
2013-05-28 22:37:00,67.1,62.3,30.19,SE,135,0.0,0.8,84,0.00,,---,0.00,VWS V14.01,2013-05-29 02:37:00,
2013-05-28 22:42:00,67.0,62.2,30.20,SE,135,0.0,0.0,84,0.00,,---,0.00,VWS V14.01,2013-05-29 02:42:00,
2013-05-28 22:47:00,66.8,62.0,30.19,SE,135,0.0,0.0,84,0.00,,---,0.00,VWS V14.01,2013-05-29 02:47:00,
2013-05-28 22:52:00,66.6,62.1,30.20,SE,135,0.0,0.0,85,0.00,,---,0.00,VWS V14.01,2013-05-29 02:52:00,
2013-05-28 22:57:00,66.6,62.5,30.20,ESE,112,0.0,0.0,87,0.00,,---,0.00,VWS V14.01,2013-05-29 02:57:00,
2013-05-28 23:02:00,66.2,62.1,30.20,ESE,112,0.0,0.0,87,0.00,,---,0.00,VWS V14.01,2013-05-29 03:02:00,
2013-05-28 23:08:00,66.1,62.0,30.20,ESE,112,0.0,0.8,87,0.00,,---,0.00,VWS V14.01,2013-05-29 03:08:00,
2013-05-28 23:13:00,66.1,62.0,30.20,ESE,112,0.0,0.4,87,0.00,,---,0.00,VWS V14.01,2013-05-29 03:13:00,
2013-05-28 23:18:00,65.9,61.8,30.20,ESE,112,0.0,0.0,87,0.00,,---,0.00,VWS V14.01,2013-05-29 03:18:00,
2013-05-28 23:23:00,65.7,61.6,30.20,ESE,112,0.0,0.0,87,0.00,,---,0.00,VWS V14.01,2013-05-29 03:23:00,
2013-05-28 23:28:00,65.5,61.4,30.20,ESE,112,0.0,0.0,87,0.00,,---,0.00,VWS V14.01,2013-05-29 03:28:00,
2013-05-28 23:33:00,65.2,61.4,30.20,ESE,112,0.0,0.0,88,0.00,,---,0.00,VWS V14.01,2013-05-29 03:33:00,
2013-05-28 23:38:00,65.2,61.4,30.20,ESE,112,0.0,0.0,88,0.00,,---,0.00,VWS V14.01,2013-05-29 03:38:00,
2013-05-28 23:43:00,65.0,61.2,30.20,ESE,112,0.0,0.0,88,0.00,,---,0.00,VWS V14.01,2013-05-29 03:43:00,
2013-05-28 23:48:00,64.8,61.0,30.20,ESE,112,0.0,0.0,88,0.00,,---,0.00,VWS V14.01,2013-05-29 03:48:00,
2013-05-28 23:53:00,64.6,60.8,30.20,ESE,112,0.0,0.0,88,0.00,,---,0.00,VWS V14.01,2013-05-29 03:53:00,
2013-05-28 23:58:00,64.3,60.9,30.20,ESE,112,0.0,0.0,89,0.00,,---,0.00,VWS V14.01,2013-05-29 03:58:00,